sensor_id;sensor_type;location;lat;lon;timestamp;temperature;humidity
41838;DHT22;27511;52.042;5.178;2024-03-06T00:00:06;10.30;99.90
41838;DHT22;27511;52.042;5.178;2024-03-06T00:02:34;10.30;99.90
41838;DHT22;27511;52.042;5.178;2024-03-06T00:05:00;10.30;99.90
41838;DHT22;27511;52.042;5.178;2024-03-06T00:07:26;10.30;99.90
41838;DHT22;27511;52.042;5.178;2024-03-06T00:09:51;10.20;99.90
41838;DHT22;27511;52.042;5.178;2024-03-06T00:12:18;10.10;99.90
41838;DHT22;27511;52.042;5.178;2024-03-06T00:14:44;10.10;99.90
41838;DHT22;27511;52.042;5.178;2024-03-06T00:17:09;10.10;99.90
41838;DHT22;27511;52.042;5.178;2024-03-06T00:19:35;10.10;99.90
41838;DHT22;27511;52.042;5.178;2024-03-06T00:22:01;10.10;99.90
41838;DHT22;27511;52.042;5.178;2024-03-06T00:24:27;10.10;99.90
41838;DHT22;27511;52.042;5.178;2024-03-06T00:26:53;10.10;99.90
41838;DHT22;27511;52.042;5.178;2024-03-06T00:29:19;10.00;99.90
41838;DHT22;27511;52.042;5.178;2024-03-06T00:31:45;10.00;99.90
41838;DHT22;27511;52.042;5.178;2024-03-06T00:34:11;10.00;99.90
41838;DHT22;27511;52.042;5.178;2024-03-06T00:36:40;10.00;99.90
41838;DHT22;27511;52.042;5.178;2024-03-06T00:39:06;10.00;99.90
41838;DHT22;27511;52.042;5.178;2024-03-06T00:41:34;10.00;99.90
41838;DHT22;27511;52.042;5.178;2024-03-06T00:44:00;10.00;99.90
41838;DHT22;27511;52.042;5.178;2024-03-06T00:46:25;9.90;99.90
41838;DHT22;27511;52.042;5.178;2024-03-06T00:48:51;10.00;99.90
41838;DHT22;27511;52.042;5.178;2024-03-06T00:51:16;10.00;99.90
41838;DHT22;27511;52.042;5.178;2024-03-06T00:53:42;10.00;99.90
41838;DHT22;27511;52.042;5.178;2024-03-06T00:56:08;10.10;99.90
41838;DHT22;27511;52.042;5.178;2024-03-06T00:58:33;10.10;99.90
41838;DHT22;27511;52.042;5.178;2024-03-06T01:00:59;10.10;99.90
41838;DHT22;27511;52.042;5.178;2024-03-06T01:03:24;10.10;99.90
41838;DHT22;27511;52.042;5.178;2024-03-06T01:05:50;10.10;99.90
41838;DHT22;27511;52.042;5.178;2024-03-06T01:08:17;10.20;99.90
41838;DHT22;27511;52.042;5.178;2024-03-06T01:10:43;10.30;99.90
41838;DHT22;27511;52.042;5.178;2024-03-06T01:13:09;10.30;99.90
41838;DHT22;27511;52.042;5.178;2024-03-06T01:15:36;10.30;99.90
41838;DHT22;27511;52.042;5.178;2024-03-06T01:18:02;10.40;99.90
41838;DHT22;27511;52.042;5.178;2024-03-06T01:20:29;10.30;99.90
41838;DHT22;27511;52.042;5.178;2024-03-06T01:22:54;10.30;99.90
41838;DHT22;27511;52.042;5.178;2024-03-06T01:25:20;10.30;99.90
41838;DHT22;27511;52.042;5.178;2024-03-06T01:27:48;10.30;99.90
41838;DHT22;27511;52.042;5.178;2024-03-06T01:30:14;10.40;99.90
41838;DHT22;27511;52.042;5.178;2024-03-06T01:32:39;10.40;99.90
41838;DHT22;27511;52.042;5.178;2024-03-06T01:35:05;10.40;99.90
41838;DHT22;27511;52.042;5.178;2024-03-06T01:37:32;10.40;99.90
41838;DHT22;27511;52.042;5.178;2024-03-06T01:39:57;10.40;99.90
41838;DHT22;27511;52.042;5.178;2024-03-06T01:42:23;10.40;99.90
41838;DHT22;27511;52.042;5.178;2024-03-06T01:44:49;10.40;99.90
41838;DHT22;27511;52.042;5.178;2024-03-06T01:47:17;10.40;99.90
41838;DHT22;27511;52.042;5.178;2024-03-06T01:49:43;10.40;99.90
41838;DHT22;27511;52.042;5.178;2024-03-06T01:52:13;10.40;99.90
41838;DHT22;27511;52.042;5.178;2024-03-06T01:54:40;10.40;99.90
41838;DHT22;27511;52.042;5.178;2024-03-06T01:57:07;10.40;99.90
41838;DHT22;27511;52.042;5.178;2024-03-06T01:59:33;10.40;99.90
41838;DHT22;27511;52.042;5.178;2024-03-06T02:02:00;10.50;99.90
41838;DHT22;27511;52.042;5.178;2024-03-06T02:04:29;10.40;99.90
41838;DHT22;27511;52.042;5.178;2024-03-06T02:06:56;10.40;99.90
41838;DHT22;27511;52.042;5.178;2024-03-06T02:09:21;10.40;99.90
41838;DHT22;27511;52.042;5.178;2024-03-06T02:11:48;10.10;99.90
41838;DHT22;27511;52.042;5.178;2024-03-06T02:14:15;10.10;99.90
41838;DHT22;27511;52.042;5.178;2024-03-06T02:16:41;10.20;99.90
41838;DHT22;27511;52.042;5.178;2024-03-06T02:19:08;10.10;99.90
41838;DHT22;27511;52.042;5.178;2024-03-06T02:21:33;10.10;99.90
41838;DHT22;27511;52.042;5.178;2024-03-06T02:23:59;10.30;99.90
41838;DHT22;27511;52.042;5.178;2024-03-06T02:26:25;10.40;99.90
41838;DHT22;27511;52.042;5.178;2024-03-06T02:28:52;9.90;99.90
41838;DHT22;27511;52.042;5.178;2024-03-06T02:31:18;9.90;99.90
41838;DHT22;27511;52.042;5.178;2024-03-06T02:33:48;10.00;99.90
41838;DHT22;27511;52.042;5.178;2024-03-06T02:36:14;10.10;99.90
41838;DHT22;27511;52.042;5.178;2024-03-06T02:38:40;10.20;99.90
41838;DHT22;27511;52.042;5.178;2024-03-06T02:41:06;10.10;99.90
41838;DHT22;27511;52.042;5.178;2024-03-06T02:43:33;10.10;99.90
41838;DHT22;27511;52.042;5.178;2024-03-06T02:45:59;10.20;99.90
41838;DHT22;27511;52.042;5.178;2024-03-06T02:48:24;10.20;99.90
41838;DHT22;27511;52.042;5.178;2024-03-06T02:50:50;10.40;99.90
41838;DHT22;27511;52.042;5.178;2024-03-06T02:53:15;10.40;99.90
41838;DHT22;27511;52.042;5.178;2024-03-06T02:55:41;10.40;99.90
41838;DHT22;27511;52.042;5.178;2024-03-06T02:58:07;10.50;99.90
41838;DHT22;27511;52.042;5.178;2024-03-06T03:00:32;10.40;99.90
41838;DHT22;27511;52.042;5.178;2024-03-06T03:02:58;10.50;99.90
41838;DHT22;27511;52.042;5.178;2024-03-06T03:05:24;10.50;99.90
41838;DHT22;27511;52.042;5.178;2024-03-06T03:07:50;10.50;99.90
41838;DHT22;27511;52.042;5.178;2024-03-06T03:10:16;10.50;99.90
41838;DHT22;27511;52.042;5.178;2024-03-06T03:12:41;10.50;99.90
41838;DHT22;27511;52.042;5.178;2024-03-06T03:15:08;10.50;99.90
41838;DHT22;27511;52.042;5.178;2024-03-06T03:17:34;10.50;99.90
41838;DHT22;27511;52.042;5.178;2024-03-06T03:20:00;10.50;99.90
41838;DHT22;27511;52.042;5.178;2024-03-06T03:22:25;10.50;99.90
41838;DHT22;27511;52.042;5.178;2024-03-06T03:24:51;10.40;99.90
41838;DHT22;27511;52.042;5.178;2024-03-06T03:27:16;10.50;99.90
41838;DHT22;27511;52.042;5.178;2024-03-06T03:29:42;10.40;99.90
41838;DHT22;27511;52.042;5.178;2024-03-06T03:32:08;10.40;99.90
41838;DHT22;27511;52.042;5.178;2024-03-06T03:34:36;10.50;99.90
41838;DHT22;27511;52.042;5.178;2024-03-06T03:37:02;10.40;99.90
41838;DHT22;27511;52.042;5.178;2024-03-06T03:39:27;10.40;99.90
41838;DHT22;27511;52.042;5.178;2024-03-06T03:41:53;10.40;99.90
41838;DHT22;27511;52.042;5.178;2024-03-06T03:44:19;10.40;99.90
41838;DHT22;27511;52.042;5.178;2024-03-06T03:46:45;10.30;99.90
41838;DHT22;27511;52.042;5.178;2024-03-06T03:49:11;10.20;99.90
41838;DHT22;27511;52.042;5.178;2024-03-06T03:51:40;10.30;99.90
41838;DHT22;27511;52.042;5.178;2024-03-06T03:54:06;10.10;99.90
41838;DHT22;27511;52.042;5.178;2024-03-06T03:56:32;10.20;99.90
41838;DHT22;27511;52.042;5.178;2024-03-06T03:58:59;10.20;99.90
41838;DHT22;27511;52.042;5.178;2024-03-06T04:01:27;10.10;99.90
41838;DHT22;27511;52.042;5.178;2024-03-06T04:03:55;10.10;99.90
41838;DHT22;27511;52.042;5.178;2024-03-06T04:06:21;10.10;99.90
41838;DHT22;27511;52.042;5.178;2024-03-06T04:08:49;10.10;99.90
41838;DHT22;27511;52.042;5.178;2024-03-06T04:11:14;10.00;99.90
41838;DHT22;27511;52.042;5.178;2024-03-06T04:13:40;10.00;99.90
41838;DHT22;27511;52.042;5.178;2024-03-06T04:16:06;10.10;99.90
41838;DHT22;27511;52.042;5.178;2024-03-06T04:18:32;10.10;99.90
41838;DHT22;27511;52.042;5.178;2024-03-06T04:21:07;10.10;99.90
41838;DHT22;27511;52.042;5.178;2024-03-06T04:23:34;10.10;99.90
41838;DHT22;27511;52.042;5.178;2024-03-06T04:26:01;10.00;99.90
41838;DHT22;27511;52.042;5.178;2024-03-06T04:28:26;10.00;99.90
41838;DHT22;27511;52.042;5.178;2024-03-06T04:30:52;10.10;99.90
41838;DHT22;27511;52.042;5.178;2024-03-06T04:33:17;10.00;99.90
41838;DHT22;27511;52.042;5.178;2024-03-06T04:35:43;10.00;99.90
41838;DHT22;27511;52.042;5.178;2024-03-06T04:38:08;10.00;99.90
41838;DHT22;27511;52.042;5.178;2024-03-06T04:40:34;10.10;99.90
41838;DHT22;27511;52.042;5.178;2024-03-06T04:43:03;10.00;99.90
41838;DHT22;27511;52.042;5.178;2024-03-06T04:45:28;9.90;99.90
41838;DHT22;27511;52.042;5.178;2024-03-06T04:47:55;10.00;99.90
41838;DHT22;27511;52.042;5.178;2024-03-06T04:50:20;10.00;99.90
41838;DHT22;27511;52.042;5.178;2024-03-06T04:52:46;10.00;99.90
41838;DHT22;27511;52.042;5.178;2024-03-06T04:55:12;10.00;99.90
41838;DHT22;27511;52.042;5.178;2024-03-06T04:57:42;10.00;99.90
41838;DHT22;27511;52.042;5.178;2024-03-06T05:00:09;10.10;99.90
41838;DHT22;27511;52.042;5.178;2024-03-06T05:02:35;10.00;99.90
41838;DHT22;27511;52.042;5.178;2024-03-06T05:05:02;10.10;99.90
41838;DHT22;27511;52.042;5.178;2024-03-06T05:07:29;9.90;99.90
41838;DHT22;27511;52.042;5.178;2024-03-06T05:09:56;9.60;99.90
41838;DHT22;27511;52.042;5.178;2024-03-06T05:12:25;9.70;99.90
41838;DHT22;27511;52.042;5.178;2024-03-06T05:14:51;9.80;99.90
41838;DHT22;27511;52.042;5.178;2024-03-06T05:17:18;9.50;99.90
41838;DHT22;27511;52.042;5.178;2024-03-06T05:19:44;9.60;99.90
41838;DHT22;27511;52.042;5.178;2024-03-06T05:22:10;9.70;99.90
41838;DHT22;27511;52.042;5.178;2024-03-06T05:24:39;9.80;99.90
41838;DHT22;27511;52.042;5.178;2024-03-06T05:27:05;9.70;99.90
41838;DHT22;27511;52.042;5.178;2024-03-06T05:29:31;9.70;99.90
41838;DHT22;27511;52.042;5.178;2024-03-06T05:31:57;9.50;99.90
41838;DHT22;27511;52.042;5.178;2024-03-06T05:34:23;9.60;99.90
41838;DHT22;27511;52.042;5.178;2024-03-06T05:36:49;9.60;99.90
41838;DHT22;27511;52.042;5.178;2024-03-06T05:39:14;9.50;99.90
41838;DHT22;27511;52.042;5.178;2024-03-06T05:41:40;9.50;99.90
41838;DHT22;27511;52.042;5.178;2024-03-06T05:44:07;9.40;99.90
41838;DHT22;27511;52.042;5.178;2024-03-06T05:46:33;9.40;99.90
41838;DHT22;27511;52.042;5.178;2024-03-06T05:48:59;9.40;99.90
41838;DHT22;27511;52.042;5.178;2024-03-06T05:51:25;9.20;99.90
41838;DHT22;27511;52.042;5.178;2024-03-06T05:53:50;9.30;99.90
41838;DHT22;27511;52.042;5.178;2024-03-06T05:56:18;9.20;99.90
41838;DHT22;27511;52.042;5.178;2024-03-06T05:58:44;9.10;99.90
41838;DHT22;27511;52.042;5.178;2024-03-06T06:01:13;9.20;99.90
41838;DHT22;27511;52.042;5.178;2024-03-06T06:03:41;8.90;99.90
41838;DHT22;27511;52.042;5.178;2024-03-06T06:06:06;8.60;99.90
41838;DHT22;27511;52.042;5.178;2024-03-06T06:08:34;8.80;99.90
41838;DHT22;27511;52.042;5.178;2024-03-06T06:11:00;8.40;99.90
41838;DHT22;27511;52.042;5.178;2024-03-06T06:13:28;8.00;1.00
41838;DHT22;27511;52.042;5.178;2024-03-06T06:15:54;8.20;1.00
41838;DHT22;27511;52.042;5.178;2024-03-06T06:18:19;8.40;1.00
41838;DHT22;27511;52.042;5.178;2024-03-06T06:20:45;8.60;99.90
41838;DHT22;27511;52.042;5.178;2024-03-06T06:23:11;8.40;99.90
41838;DHT22;27511;52.042;5.178;2024-03-06T06:25:36;8.40;99.90
41838;DHT22;27511;52.042;5.178;2024-03-06T06:28:02;8.50;99.90
41838;DHT22;27511;52.042;5.178;2024-03-06T06:30:28;8.60;99.90
41838;DHT22;27511;52.042;5.178;2024-03-06T06:32:53;8.60;99.90
41838;DHT22;27511;52.042;5.178;2024-03-06T06:35:19;8.70;99.90
41838;DHT22;27511;52.042;5.178;2024-03-06T06:37:44;8.40;99.90
41838;DHT22;27511;52.042;5.178;2024-03-06T06:40:12;8.50;99.90
41838;DHT22;27511;52.042;5.178;2024-03-06T06:42:44;8.30;99.90
41838;DHT22;27511;52.042;5.178;2024-03-06T06:45:10;8.50;99.90
41838;DHT22;27511;52.042;5.178;2024-03-06T06:47:36;8.50;99.90
41838;DHT22;27511;52.042;5.178;2024-03-06T06:50:01;8.50;99.90
41838;DHT22;27511;52.042;5.178;2024-03-06T06:52:30;8.60;99.90
41838;DHT22;27511;52.042;5.178;2024-03-06T06:54:59;8.70;99.90
41838;DHT22;27511;52.042;5.178;2024-03-06T06:57:24;8.70;99.90
41838;DHT22;27511;52.042;5.178;2024-03-06T06:59:50;8.70;99.90
41838;DHT22;27511;52.042;5.178;2024-03-06T07:02:15;8.70;99.90
41838;DHT22;27511;52.042;5.178;2024-03-06T07:04:41;8.60;99.90
41838;DHT22;27511;52.042;5.178;2024-03-06T07:07:06;8.70;1.00
41838;DHT22;27511;52.042;5.178;2024-03-06T07:09:32;8.70;1.00
41838;DHT22;27511;52.042;5.178;2024-03-06T07:11:57;8.70;99.90
41838;DHT22;27511;52.042;5.178;2024-03-06T07:14:23;8.70;1.00
41838;DHT22;27511;52.042;5.178;2024-03-06T07:16:49;8.80;99.90
41838;DHT22;27511;52.042;5.178;2024-03-06T07:19:14;8.80;1.00
41838;DHT22;27511;52.042;5.178;2024-03-06T07:21:40;8.90;1.00
41838;DHT22;27511;52.042;5.178;2024-03-06T07:24:05;8.90;1.00
41838;DHT22;27511;52.042;5.178;2024-03-06T07:26:32;8.90;1.00
41838;DHT22;27511;52.042;5.178;2024-03-06T07:28:58;8.80;1.00
41838;DHT22;27511;52.042;5.178;2024-03-06T07:31:24;8.70;1.00
41838;DHT22;27511;52.042;5.178;2024-03-06T07:33:50;8.80;1.00
41838;DHT22;27511;52.042;5.178;2024-03-06T07:36:16;8.90;1.00
41838;DHT22;27511;52.042;5.178;2024-03-06T07:38:44;9.00;1.00
41838;DHT22;27511;52.042;5.178;2024-03-06T07:41:10;9.10;1.00
41838;DHT22;27511;52.042;5.178;2024-03-06T07:43:42;9.10;1.00
41838;DHT22;27511;52.042;5.178;2024-03-06T07:46:08;9.10;1.00
41838;DHT22;27511;52.042;5.178;2024-03-06T07:48:42;9.10;1.00
41838;DHT22;27511;52.042;5.178;2024-03-06T07:51:09;9.20;1.00
41838;DHT22;27511;52.042;5.178;2024-03-06T07:53:35;9.30;1.00
41838;DHT22;27511;52.042;5.178;2024-03-06T07:56:02;9.20;1.00
41838;DHT22;27511;52.042;5.178;2024-03-06T07:58:28;9.30;1.00
41838;DHT22;27511;52.042;5.178;2024-03-06T08:00:54;9.30;1.00
41838;DHT22;27511;52.042;5.178;2024-03-06T08:03:22;9.20;1.00
41838;DHT22;27511;52.042;5.178;2024-03-06T08:05:53;8.60;1.00
41838;DHT22;27511;52.042;5.178;2024-03-06T08:08:19;8.80;1.00
41838;DHT22;27511;52.042;5.178;2024-03-06T08:10:44;9.20;1.00
41838;DHT22;27511;52.042;5.178;2024-03-06T08:13:10;9.30;1.00
41838;DHT22;27511;52.042;5.178;2024-03-06T08:15:36;9.30;1.00
41838;DHT22;27511;52.042;5.178;2024-03-06T08:18:02;9.10;1.00
41838;DHT22;27511;52.042;5.178;2024-03-06T08:20:29;9.20;1.00
41838;DHT22;27511;52.042;5.178;2024-03-06T08:22:56;9.30;1.00
41838;DHT22;27511;52.042;5.178;2024-03-06T08:25:21;9.10;1.00
41838;DHT22;27511;52.042;5.178;2024-03-06T08:27:50;9.00;1.00
41838;DHT22;27511;52.042;5.178;2024-03-06T08:30:15;9.20;1.00
41838;DHT22;27511;52.042;5.178;2024-03-06T08:32:41;8.70;1.00
41838;DHT22;27511;52.042;5.178;2024-03-06T08:35:10;8.90;1.00
41838;DHT22;27511;52.042;5.178;2024-03-06T08:37:37;8.70;1.00
41838;DHT22;27511;52.042;5.178;2024-03-06T08:40:03;8.50;1.00
41838;DHT22;27511;52.042;5.178;2024-03-06T08:42:29;8.30;1.00
41838;DHT22;27511;52.042;5.178;2024-03-06T08:44:55;8.30;1.00
41838;DHT22;27511;52.042;5.178;2024-03-06T08:47:20;8.50;1.00
41838;DHT22;27511;52.042;5.178;2024-03-06T08:49:46;8.50;1.00
41838;DHT22;27511;52.042;5.178;2024-03-06T08:52:13;8.40;1.00
41838;DHT22;27511;52.042;5.178;2024-03-06T08:54:40;8.50;1.00
41838;DHT22;27511;52.042;5.178;2024-03-06T08:57:07;8.90;1.00
41838;DHT22;27511;52.042;5.178;2024-03-06T08:59:34;8.20;1.00
41838;DHT22;27511;52.042;5.178;2024-03-06T09:02:12;8.30;1.00
41838;DHT22;27511;52.042;5.178;2024-03-06T09:04:42;8.20;1.00
41838;DHT22;27511;52.042;5.178;2024-03-06T09:07:09;8.70;1.00
41838;DHT22;27511;52.042;5.178;2024-03-06T09:09:35;8.80;1.00
41838;DHT22;27511;52.042;5.178;2024-03-06T09:12:02;8.50;1.00
41838;DHT22;27511;52.042;5.178;2024-03-06T09:14:30;8.90;1.00
41838;DHT22;27511;52.042;5.178;2024-03-06T09:16:55;8.50;1.00
41838;DHT22;27511;52.042;5.178;2024-03-06T09:19:21;9.00;1.00
41838;DHT22;27511;52.042;5.178;2024-03-06T09:21:48;9.10;1.00
41838;DHT22;27511;52.042;5.178;2024-03-06T09:24:13;9.30;1.00
41838;DHT22;27511;52.042;5.178;2024-03-06T09:26:39;8.90;1.00
41838;DHT22;27511;52.042;5.178;2024-03-06T09:29:05;8.50;1.00
41838;DHT22;27511;52.042;5.178;2024-03-06T09:31:31;9.00;1.00
41838;DHT22;27511;52.042;5.178;2024-03-06T09:33:56;8.70;1.00
41838;DHT22;27511;52.042;5.178;2024-03-06T09:36:23;8.70;1.00
41838;DHT22;27511;52.042;5.178;2024-03-06T09:38:48;8.70;1.00
41838;DHT22;27511;52.042;5.178;2024-03-06T09:41:14;8.90;1.00
41838;DHT22;27511;52.042;5.178;2024-03-06T09:43:39;8.60;1.00
41838;DHT22;27511;52.042;5.178;2024-03-06T09:46:07;8.10;1.00
41838;DHT22;27511;52.042;5.178;2024-03-06T09:48:33;8.70;1.00
41838;DHT22;27511;52.042;5.178;2024-03-06T09:51:01;9.20;1.00
41838;DHT22;27511;52.042;5.178;2024-03-06T09:53:28;8.60;1.00
41838;DHT22;27511;52.042;5.178;2024-03-06T09:55:55;8.60;1.00
41838;DHT22;27511;52.042;5.178;2024-03-06T09:58:21;8.40;1.00
41838;DHT22;27511;52.042;5.178;2024-03-06T10:00:48;8.40;1.00
41838;DHT22;27511;52.042;5.178;2024-03-06T10:03:15;8.50;1.00
41838;DHT22;27511;52.042;5.178;2024-03-06T10:05:41;8.90;1.00
41838;DHT22;27511;52.042;5.178;2024-03-06T10:08:08;9.10;1.00
41838;DHT22;27511;52.042;5.178;2024-03-06T10:10:35;8.50;1.00
41838;DHT22;27511;52.042;5.178;2024-03-06T10:13:02;8.60;1.00
41838;DHT22;27511;52.042;5.178;2024-03-06T10:15:27;8.60;1.00
41838;DHT22;27511;52.042;5.178;2024-03-06T10:18:14;9.00;1.00
41838;DHT22;27511;52.042;5.178;2024-03-06T10:20:41;8.70;1.00
41838;DHT22;27511;52.042;5.178;2024-03-06T10:23:10;8.50;1.00
41838;DHT22;27511;52.042;5.178;2024-03-06T10:25:36;8.40;1.00
41838;DHT22;27511;52.042;5.178;2024-03-06T10:28:05;8.30;1.00
41838;DHT22;27511;52.042;5.178;2024-03-06T10:30:33;8.40;1.00
41838;DHT22;27511;52.042;5.178;2024-03-06T10:33:01;8.40;1.00
41838;DHT22;27511;52.042;5.178;2024-03-06T10:35:28;8.40;1.00
41838;DHT22;27511;52.042;5.178;2024-03-06T10:37:54;8.40;1.00
41838;DHT22;27511;52.042;5.178;2024-03-06T10:40:22;8.70;1.00
41838;DHT22;27511;52.042;5.178;2024-03-06T10:42:48;8.70;1.00
41838;DHT22;27511;52.042;5.178;2024-03-06T10:45:14;8.70;1.00
41838;DHT22;27511;52.042;5.178;2024-03-06T10:47:46;9.10;1.00
41838;DHT22;27511;52.042;5.178;2024-03-06T10:50:14;9.10;1.00
41838;DHT22;27511;52.042;5.178;2024-03-06T10:52:41;9.50;1.00
41838;DHT22;27511;52.042;5.178;2024-03-06T10:55:08;9.50;1.00
41838;DHT22;27511;52.042;5.178;2024-03-06T10:57:36;9.60;1.00
41838;DHT22;27511;52.042;5.178;2024-03-06T11:00:03;9.50;1.00
41838;DHT22;27511;52.042;5.178;2024-03-06T11:02:29;9.70;1.00
41838;DHT22;27511;52.042;5.178;2024-03-06T11:04:55;9.60;1.00
41838;DHT22;27511;52.042;5.178;2024-03-06T11:07:21;9.60;1.00
41838;DHT22;27511;52.042;5.178;2024-03-06T11:09:46;9.80;1.00
41838;DHT22;27511;52.042;5.178;2024-03-06T11:12:41;9.70;1.00
41838;DHT22;27511;52.042;5.178;2024-03-06T11:17:39;10.00;1.00
41838;DHT22;27511;52.042;5.178;2024-03-06T11:28:21;10.70;1.00
41838;DHT22;27511;52.042;5.178;2024-03-06T11:31:00;10.20;1.00
41838;DHT22;27511;52.042;5.178;2024-03-06T11:36:20;10.60;1.00
41838;DHT22;27511;52.042;5.178;2024-03-06T11:41:13;10.40;1.00
41838;DHT22;27511;52.042;5.178;2024-03-06T11:43:45;10.40;1.00
41838;DHT22;27511;52.042;5.178;2024-03-06T11:46:11;10.00;1.00
41838;DHT22;27511;52.042;5.178;2024-03-06T11:48:37;10.40;1.00
41838;DHT22;27511;52.042;5.178;2024-03-06T11:51:03;10.70;1.00
41838;DHT22;27511;52.042;5.178;2024-03-06T11:53:30;10.50;1.00
41838;DHT22;27511;52.042;5.178;2024-03-06T11:55:56;10.80;1.00
41838;DHT22;27511;52.042;5.178;2024-03-06T11:58:25;10.80;1.00
41838;DHT22;27511;52.042;5.178;2024-03-06T12:00:51;10.90;1.00
41838;DHT22;27511;52.042;5.178;2024-03-06T12:03:17;11.30;1.00
41838;DHT22;27511;52.042;5.178;2024-03-06T12:05:44;11.50;1.00
41838;DHT22;27511;52.042;5.178;2024-03-06T12:08:11;11.20;1.00
41838;DHT22;27511;52.042;5.178;2024-03-06T12:10:37;11.30;1.00
41838;DHT22;27511;52.042;5.178;2024-03-06T12:13:03;11.60;1.00
41838;DHT22;27511;52.042;5.178;2024-03-06T12:15:29;11.30;1.00
41838;DHT22;27511;52.042;5.178;2024-03-06T12:17:54;11.10;1.00
41838;DHT22;27511;52.042;5.178;2024-03-06T12:20:20;10.90;1.00
41838;DHT22;27511;52.042;5.178;2024-03-06T12:22:49;11.10;1.00
41838;DHT22;27511;52.042;5.178;2024-03-06T12:25:22;11.30;1.00
41838;DHT22;27511;52.042;5.178;2024-03-06T12:27:49;11.50;1.00
41838;DHT22;27511;52.042;5.178;2024-03-06T12:30:22;11.50;1.00
41838;DHT22;27511;52.042;5.178;2024-03-06T12:32:58;11.50;1.00
41838;DHT22;27511;52.042;5.178;2024-03-06T12:35:27;11.60;1.00
41838;DHT22;27511;52.042;5.178;2024-03-06T12:37:53;11.80;1.00
41838;DHT22;27511;52.042;5.178;2024-03-06T12:40:19;12.30;1.00
41838;DHT22;27511;52.042;5.178;2024-03-06T12:42:45;12.30;1.00
41838;DHT22;27511;52.042;5.178;2024-03-06T12:45:11;12.60;1.00
41838;DHT22;27511;52.042;5.178;2024-03-06T12:47:41;12.30;1.00
41838;DHT22;27511;52.042;5.178;2024-03-06T12:50:07;12.70;1.00
41838;DHT22;27511;52.042;5.178;2024-03-06T12:52:36;13.00;1.00
41838;DHT22;27511;52.042;5.178;2024-03-06T12:55:02;12.80;1.00
41838;DHT22;27511;52.042;5.178;2024-03-06T12:57:31;13.10;1.00
41838;DHT22;27511;52.042;5.178;2024-03-06T12:59:56;13.30;1.00
41838;DHT22;27511;52.042;5.178;2024-03-06T13:02:22;13.90;1.00
41838;DHT22;27511;52.042;5.178;2024-03-06T13:04:47;13.60;1.00
41838;DHT22;27511;52.042;5.178;2024-03-06T13:07:14;13.90;1.00
41838;DHT22;27511;52.042;5.178;2024-03-06T13:09:40;13.80;99.90
41838;DHT22;27511;52.042;5.178;2024-03-06T13:12:05;14.30;99.90
41838;DHT22;27511;52.042;5.178;2024-03-06T13:14:31;14.80;99.90
41838;DHT22;27511;52.042;5.178;2024-03-06T13:16:57;14.70;99.90
41838;DHT22;27511;52.042;5.178;2024-03-06T13:19:23;14.60;99.90
41838;DHT22;27511;52.042;5.178;2024-03-06T13:21:49;14.80;99.90
41838;DHT22;27511;52.042;5.178;2024-03-06T13:24:14;15.50;99.90
41838;DHT22;27511;52.042;5.178;2024-03-06T13:26:40;15.70;99.90
41838;DHT22;27511;52.042;5.178;2024-03-06T13:29:08;15.80;99.90
41838;DHT22;27511;52.042;5.178;2024-03-06T13:31:34;16.70;99.90
41838;DHT22;27511;52.042;5.178;2024-03-06T13:34:00;17.40;99.90
41838;DHT22;27511;52.042;5.178;2024-03-06T13:36:26;17.80;99.90
41838;DHT22;27511;52.042;5.178;2024-03-06T13:38:52;18.50;99.90
41838;DHT22;27511;52.042;5.178;2024-03-06T13:41:17;19.30;99.90
41838;DHT22;27511;52.042;5.178;2024-03-06T13:43:43;19.10;99.90
41838;DHT22;27511;52.042;5.178;2024-03-06T13:46:09;19.70;99.90
41838;DHT22;27511;52.042;5.178;2024-03-06T13:48:34;20.00;99.90
41838;DHT22;27511;52.042;5.178;2024-03-06T13:51:01;20.60;99.90
41838;DHT22;27511;52.042;5.178;2024-03-06T13:53:27;21.10;99.90
41838;DHT22;27511;52.042;5.178;2024-03-06T13:55:52;21.20;99.90
41838;DHT22;27511;52.042;5.178;2024-03-06T13:58:18;20.40;99.90
41838;DHT22;27511;52.042;5.178;2024-03-06T14:00:44;19.90;99.90
41838;DHT22;27511;52.042;5.178;2024-03-06T14:03:10;20.40;99.90
41838;DHT22;27511;52.042;5.178;2024-03-06T14:05:37;21.30;99.90
41838;DHT22;27511;52.042;5.178;2024-03-06T14:08:03;20.60;99.90
41838;DHT22;27511;52.042;5.178;2024-03-06T14:10:29;21.00;99.90
41838;DHT22;27511;52.042;5.178;2024-03-06T14:12:59;21.10;99.90
41838;DHT22;27511;52.042;5.178;2024-03-06T14:15:25;18.70;99.90
41838;DHT22;27511;52.042;5.178;2024-03-06T14:17:52;18.80;99.90
41838;DHT22;27511;52.042;5.178;2024-03-06T14:20:19;19.50;99.90
41838;DHT22;27511;52.042;5.178;2024-03-06T14:22:45;19.50;99.90
41838;DHT22;27511;52.042;5.178;2024-03-06T14:25:14;17.60;99.90
41838;DHT22;27511;52.042;5.178;2024-03-06T14:27:39;18.40;99.90
41838;DHT22;27511;52.042;5.178;2024-03-06T14:30:06;17.70;99.90
41838;DHT22;27511;52.042;5.178;2024-03-06T14:32:33;17.50;99.90
41838;DHT22;27511;52.042;5.178;2024-03-06T14:34:58;18.30;99.90
41838;DHT22;27511;52.042;5.178;2024-03-06T14:37:24;18.30;99.90
41838;DHT22;27511;52.042;5.178;2024-03-06T14:39:52;18.60;99.90
41838;DHT22;27511;52.042;5.178;2024-03-06T14:42:17;18.60;99.90
41838;DHT22;27511;52.042;5.178;2024-03-06T14:44:43;17.80;99.90
41838;DHT22;27511;52.042;5.178;2024-03-06T14:47:09;18.40;99.90
41838;DHT22;27511;52.042;5.178;2024-03-06T14:49:35;19.00;99.90
41838;DHT22;27511;52.042;5.178;2024-03-06T14:52:03;19.30;99.90
41838;DHT22;27511;52.042;5.178;2024-03-06T14:54:29;18.60;99.90
41838;DHT22;27511;52.042;5.178;2024-03-06T14:56:54;18.60;99.90
41838;DHT22;27511;52.042;5.178;2024-03-06T14:59:21;18.70;99.90
41838;DHT22;27511;52.042;5.178;2024-03-06T15:01:47;18.40;99.90
41838;DHT22;27511;52.042;5.178;2024-03-06T15:04:13;18.20;99.90
41838;DHT22;27511;52.042;5.178;2024-03-06T15:06:39;19.10;99.90
41838;DHT22;27511;52.042;5.178;2024-03-06T15:09:05;20.70;99.90
41838;DHT22;27511;52.042;5.178;2024-03-06T15:11:31;22.00;99.90
41838;DHT22;27511;52.042;5.178;2024-03-06T15:14:04;23.10;99.90
41838;DHT22;27511;52.042;5.178;2024-03-06T15:16:30;23.90;99.90
41838;DHT22;27511;52.042;5.178;2024-03-06T15:18:55;24.40;99.90
41838;DHT22;27511;52.042;5.178;2024-03-06T15:21:23;24.20;99.90
41838;DHT22;27511;52.042;5.178;2024-03-06T15:23:48;24.00;99.90
41838;DHT22;27511;52.042;5.178;2024-03-06T15:26:16;23.40;99.90
41838;DHT22;27511;52.042;5.178;2024-03-06T15:28:41;23.10;99.90
41838;DHT22;27511;52.042;5.178;2024-03-06T15:31:09;22.30;99.90
41838;DHT22;27511;52.042;5.178;2024-03-06T15:33:35;22.20;99.90
41838;DHT22;27511;52.042;5.178;2024-03-06T15:36:00;20.50;99.90
41838;DHT22;27511;52.042;5.178;2024-03-06T15:38:26;20.50;99.90
41838;DHT22;27511;52.042;5.178;2024-03-06T15:40:52;20.40;99.90
41838;DHT22;27511;52.042;5.178;2024-03-06T15:43:18;20.20;99.90
41838;DHT22;27511;52.042;5.178;2024-03-06T15:45:44;19.90;99.90
41838;DHT22;27511;52.042;5.178;2024-03-06T15:48:09;19.80;99.90
41838;DHT22;27511;52.042;5.178;2024-03-06T15:50:43;18.70;99.90
41838;DHT22;27511;52.042;5.178;2024-03-06T15:53:09;17.60;99.90